sensor_id;sensor_type;location;lat;lon;timestamp;P1;durP1;ratioP1;P2;durP2;ratioP2
75156;SDS011;63736;50.076;8.198;2023-03-01T00:01:00;308.55;;;37.08;;
75156;SDS011;63736;50.076;8.198;2023-03-01T00:03:29;312.95;;;37.10;;
75156;SDS011;63736;50.076;8.198;2023-03-01T00:05:54;307.88;;;37.47;;
75156;SDS011;63736;50.076;8.198;2023-03-01T00:08:20;315.33;;;38.33;;
75156;SDS011;63736;50.076;8.198;2023-03-01T00:10:45;309.70;;;36.30;;
75156;SDS011;63736;50.076;8.198;2023-03-01T00:13:10;303.60;;;35.50;;
75156;SDS011;63736;50.076;8.198;2023-03-01T00:15:39;304.20;;;35.80;;
75156;SDS011;63736;50.076;8.198;2023-03-01T00:18:05;309.77;;;36.45;;
75156;SDS011;63736;50.076;8.198;2023-03-01T00:20:30;304.40;;;35.07;;
75156;SDS011;63736;50.076;8.198;2023-03-01T00:22:55;311.90;;;37.05;;
75156;SDS011;63736;50.076;8.198;2023-03-01T00:27:46;312.80;;;37.65;;
75156;SDS011;63736;50.076;8.198;2023-03-01T00:30:13;316.60;;;38.73;;
75156;SDS011;63736;50.076;8.198;2023-03-01T00:32:39;320.80;;;39.07;;
75156;SDS011;63736;50.076;8.198;2023-03-01T00:35:04;302.85;;;34.58;;
75156;SDS011;63736;50.076;8.198;2023-03-01T00:37:30;310.95;;;36.75;;
75156;SDS011;63736;50.076;8.198;2023-03-01T00:39:56;314.57;;;38.07;;
75156;SDS011;63736;50.076;8.198;2023-03-01T00:42:21;313.60;;;37.47;;
75156;SDS011;63736;50.076;8.198;2023-03-01T00:44:47;309.60;;;36.50;;
75156;SDS011;63736;50.076;8.198;2023-03-01T00:47:12;304.53;;;36.40;;
75156;SDS011;63736;50.076;8.198;2023-03-01T00:49:38;303.80;;;35.40;;
75156;SDS011;63736;50.076;8.198;2023-03-01T00:52:04;310.60;;;36.70;;
75156;SDS011;63736;50.076;8.198;2023-03-01T00:54:29;307.93;;;36.50;;
75156;SDS011;63736;50.076;8.198;2023-03-01T00:56:54;309.40;;;36.80;;
75156;SDS011;63736;50.076;8.198;2023-03-01T00:59:20;315.87;;;37.67;;
75156;SDS011;63736;50.076;8.198;2023-03-01T01:01:45;313.20;;;37.90;;
75156;SDS011;63736;50.076;8.198;2023-03-01T01:04:11;307.90;;;37.00;;
75156;SDS011;63736;50.076;8.198;2023-03-01T01:06:39;319.98;;;38.40;;
75156;SDS011;63736;50.076;8.198;2023-03-01T01:09:10;307.80;;;36.87;;
75156;SDS011;63736;50.076;8.198;2023-03-01T01:11:44;305.00;;;36.73;;
75156;SDS011;63736;50.076;8.198;2023-03-01T01:14:11;315.57;;;38.20;;
75156;SDS011;63736;50.076;8.198;2023-03-01T01:16:37;305.23;;;36.43;;
75156;SDS011;63736;50.076;8.198;2023-03-01T01:19:03;312.70;;;37.10;;
75156;SDS011;63736;50.076;8.198;2023-03-01T01:21:28;319.03;;;40.50;;
75156;SDS011;63736;50.076;8.198;2023-03-01T01:23:53;308.90;;;36.75;;
75156;SDS011;63736;50.076;8.198;2023-03-01T01:26:20;309.37;;;39.20;;
75156;SDS011;63736;50.076;8.198;2023-03-01T01:28:50;309.00;;;36.80;;
75156;SDS011;63736;50.076;8.198;2023-03-01T01:31:16;315.40;;;39.95;;
75156;SDS011;63736;50.076;8.198;2023-03-01T01:33:43;318.63;;;39.20;;
75156;SDS011;63736;50.076;8.198;2023-03-01T01:36:09;321.13;;;41.38;;
75156;SDS011;63736;50.076;8.198;2023-03-01T01:38:35;320.47;;;39.13;;
75156;SDS011;63736;50.076;8.198;2023-03-01T01:41:02;315.17;;;37.53;;
75156;SDS011;63736;50.076;8.198;2023-03-01T01:43:35;320.40;;;38.13;;
75156;SDS011;63736;50.076;8.198;2023-03-01T01:46:36;321.10;;;38.47;;
75156;SDS011;63736;50.076;8.198;2023-03-01T01:49:07;306.95;;;36.35;;
75156;SDS011;63736;50.076;8.198;2023-03-01T01:51:42;318.58;;;38.40;;
75156;SDS011;63736;50.076;8.198;2023-03-01T01:54:14;319.03;;;38.10;;
75156;SDS011;63736;50.076;8.198;2023-03-01T01:56:46;318.02;;;38.65;;
75156;SDS011;63736;50.076;8.198;2023-03-01T01:59:17;319.13;;;38.05;;
75156;SDS011;63736;50.076;8.198;2023-03-01T02:01:42;309.93;;;37.23;;
75156;SDS011;63736;50.076;8.198;2023-03-01T02:04:08;313.20;;;38.30;;
75156;SDS011;63736;50.076;8.198;2023-03-01T02:06:36;312.43;;;42.07;;
75156;SDS011;63736;50.076;8.198;2023-03-01T02:09:06;316.30;;;36.95;;
75156;SDS011;63736;50.076;8.198;2023-03-01T02:11:36;318.77;;;39.67;;
75156;SDS011;63736;50.076;8.198;2023-03-01T02:14:02;306.20;;;37.30;;
75156;SDS011;63736;50.076;8.198;2023-03-01T02:16:29;308.58;;;39.92;;
75156;SDS011;63736;50.076;8.198;2023-03-01T02:18:55;307.02;;;36.83;;
75156;SDS011;63736;50.076;8.198;2023-03-01T02:21:29;309.20;;;39.75;;
75156;SDS011;63736;50.076;8.198;2023-03-01T02:24:04;316.02;;;38.20;;
75156;SDS011;63736;50.076;8.198;2023-03-01T02:26:41;319.90;;;37.78;;
75156;SDS011;63736;50.076;8.198;2023-03-01T02:29:11;322.35;;;39.28;;
75156;SDS011;63736;50.076;8.198;2023-03-01T02:31:37;322.67;;;39.88;;
75156;SDS011;63736;50.076;8.198;2023-03-01T02:34:18;323.25;;;40.55;;
75156;SDS011;63736;50.076;8.198;2023-03-01T02:36:54;320.23;;;39.00;;
75156;SDS011;63736;50.076;8.198;2023-03-01T02:42:25;308.95;;;37.33;;
75156;SDS011;63736;50.076;8.198;2023-03-01T02:44:55;307.25;;;37.00;;
75156;SDS011;63736;50.076;8.198;2023-03-01T02:47:20;321.07;;;38.77;;
75156;SDS011;63736;50.076;8.198;2023-03-01T02:49:46;319.97;;;38.33;;
75156;SDS011;63736;50.076;8.198;2023-03-01T02:55:01;307.50;;;37.13;;
75156;SDS011;63736;50.076;8.198;2023-03-01T02:57:33;313.17;;;37.57;;
75156;SDS011;63736;50.076;8.198;2023-03-01T03:00:02;319.10;;;38.13;;
75156;SDS011;63736;50.076;8.198;2023-03-01T03:02:34;317.42;;;38.55;;
75156;SDS011;63736;50.076;8.198;2023-03-01T03:05:07;306.83;;;36.97;;
75156;SDS011;63736;50.076;8.198;2023-03-01T03:07:36;317.70;;;38.28;;
75156;SDS011;63736;50.076;8.198;2023-03-01T03:10:03;318.52;;;38.03;;
75156;SDS011;63736;50.076;8.198;2023-03-01T03:12:30;318.90;;;38.30;;
75156;SDS011;63736;50.076;8.198;2023-03-01T03:14:56;316.53;;;37.67;;
75156;SDS011;63736;50.076;8.198;2023-03-01T03:17:22;307.37;;;36.63;;
75156;SDS011;63736;50.076;8.198;2023-03-01T03:19:47;306.70;;;37.40;;
75156;SDS011;63736;50.076;8.198;2023-03-01T03:22:12;316.98;;;37.42;;
75156;SDS011;63736;50.076;8.198;2023-03-01T03:24:38;317.77;;;37.40;;
75156;SDS011;63736;50.076;8.198;2023-03-01T03:27:04;310.50;;;37.70;;
75156;SDS011;63736;50.076;8.198;2023-03-01T03:29:30;316.27;;;37.47;;
75156;SDS011;63736;50.076;8.198;2023-03-01T03:31:56;318.63;;;38.03;;
75156;SDS011;63736;50.076;8.198;2023-03-01T03:34:21;320.23;;;38.73;;
75156;SDS011;63736;50.076;8.198;2023-03-01T03:36:47;323.57;;;40.93;;
75156;SDS011;63736;50.076;8.198;2023-03-01T03:39:12;320.73;;;38.17;;
75156;SDS011;63736;50.076;8.198;2023-03-01T03:41:37;321.97;;;39.07;;
75156;SDS011;63736;50.076;8.198;2023-03-01T03:44:03;317.60;;;38.23;;
75156;SDS011;63736;50.076;8.198;2023-03-01T03:46:28;313.90;;;40.50;;
75156;SDS011;63736;50.076;8.198;2023-03-01T03:48:53;310.43;;;36.87;;
75156;SDS011;63736;50.076;8.198;2023-03-01T03:51:18;315.30;;;41.97;;
75156;SDS011;63736;50.076;8.198;2023-03-01T03:53:44;308.77;;;37.50;;
75156;SDS011;63736;50.076;8.198;2023-03-01T03:56:10;313.90;;;40.30;;
75156;SDS011;63736;50.076;8.198;2023-03-01T03:58:37;317.23;;;38.10;;
75156;SDS011;63736;50.076;8.198;2023-03-01T04:01:02;307.40;;;37.03;;
75156;SDS011;63736;50.076;8.198;2023-03-01T04:03:29;318.73;;;39.17;;
75156;SDS011;63736;50.076;8.198;2023-03-01T04:05:56;307.63;;;37.75;;
75156;SDS011;63736;50.076;8.198;2023-03-01T04:08:23;317.02;;;37.80;;
75156;SDS011;63736;50.076;8.198;2023-03-01T04:10:50;318.98;;;39.08;;
75156;SDS011;63736;50.076;8.198;2023-03-01T04:13:17;307.23;;;37.80;;
75156;SDS011;63736;50.076;8.198;2023-03-01T04:15:51;309.55;;;37.10;;
75156;SDS011;63736;50.076;8.198;2023-03-01T04:18:19;319.10;;;39.67;;
75156;SDS011;63736;50.076;8.198;2023-03-01T04:20:45;313.33;;;39.10;;
75156;SDS011;63736;50.076;8.198;2023-03-01T04:23:13;312.48;;;38.00;;
75156;SDS011;63736;50.076;8.198;2023-03-01T04:30:55;320.73;;;40.00;;
75156;SDS011;63736;50.076;8.198;2023-03-01T04:33:21;310.20;;;37.80;;
75156;SDS011;63736;50.076;8.198;2023-03-01T04:35:47;303.27;;;36.38;;
75156;SDS011;63736;50.076;8.198;2023-03-01T04:38:14;314.20;;;38.00;;
75156;SDS011;63736;50.076;8.198;2023-03-01T04:40:40;315.50;;;38.80;;
75156;SDS011;63736;50.076;8.198;2023-03-01T04:43:08;315.50;;;38.55;;
75156;SDS011;63736;50.076;8.198;2023-03-01T04:45:34;323.70;;;40.53;;
75156;SDS011;63736;50.076;8.198;2023-03-01T04:48:00;321.77;;;39.50;;
75156;SDS011;63736;50.076;8.198;2023-03-01T04:50:25;307.67;;;37.95;;
75156;SDS011;63736;50.076;8.198;2023-03-01T04:52:51;307.03;;;37.93;;
75156;SDS011;63736;50.076;8.198;2023-03-01T04:55:16;309.85;;;39.10;;
75156;SDS011;63736;50.076;8.198;2023-03-01T04:57:42;310.85;;;37.95;;
75156;SDS011;63736;50.076;8.198;2023-03-01T05:00:09;308.35;;;37.60;;
75156;SDS011;63736;50.076;8.198;2023-03-01T05:02:46;323.38;;;40.47;;
75156;SDS011;63736;50.076;8.198;2023-03-01T05:05:18;322.30;;;40.80;;
75156;SDS011;63736;50.076;8.198;2023-03-01T05:07:45;311.13;;;38.72;;
75156;SDS011;63736;50.076;8.198;2023-03-01T05:10:10;307.47;;;38.83;;
75156;SDS011;63736;50.076;8.198;2023-03-01T05:12:35;305.30;;;37.60;;
75156;SDS011;63736;50.076;8.198;2023-03-01T05:15:02;308.80;;;38.20;;
75156;SDS011;63736;50.076;8.198;2023-03-01T05:17:31;314.30;;;38.80;;
75156;SDS011;63736;50.076;8.198;2023-03-01T05:19:57;321.43;;;39.40;;
75156;SDS011;63736;50.076;8.198;2023-03-01T05:22:24;304.52;;;37.15;;
75156;SDS011;63736;50.076;8.198;2023-03-01T05:24:50;320.57;;;39.30;;
75156;SDS011;63736;50.076;8.198;2023-03-01T05:27:15;323.60;;;40.50;;
75156;SDS011;63736;50.076;8.198;2023-03-01T05:29:40;318.63;;;39.20;;
75156;SDS011;63736;50.076;8.198;2023-03-01T05:32:06;321.63;;;39.43;;
75156;SDS011;63736;50.076;8.198;2023-03-01T05:34:33;315.27;;;41.33;;
75156;SDS011;63736;50.076;8.198;2023-03-01T05:37:00;322.08;;;39.78;;
75156;SDS011;63736;50.076;8.198;2023-03-01T05:39:27;309.90;;;42.15;;
75156;SDS011;63736;50.076;8.198;2023-03-01T05:41:54;324.83;;;39.72;;
75156;SDS011;63736;50.076;8.198;2023-03-01T05:44:21;328.10;;;45.55;;
75156;SDS011;63736;50.076;8.198;2023-03-01T05:46:47;310.85;;;38.35;;
75156;SDS011;63736;50.076;8.198;2023-03-01T05:49:12;312.43;;;42.53;;
75156;SDS011;63736;50.076;8.198;2023-03-01T05:51:39;325.40;;;40.30;;
75156;SDS011;63736;50.076;8.198;2023-03-01T05:54:06;327.58;;;43.40;;
75156;SDS011;63736;50.076;8.198;2023-03-01T05:56:32;325.20;;;39.20;;
75156;SDS011;63736;50.076;8.198;2023-03-01T05:58:59;322.88;;;39.10;;
75156;SDS011;63736;50.076;8.198;2023-03-01T06:01:24;324.50;;;39.87;;
75156;SDS011;63736;50.076;8.198;2023-03-01T06:03:50;319.70;;;38.93;;
75156;SDS011;63736;50.076;8.198;2023-03-01T06:06:15;324.83;;;39.17;;
75156;SDS011;63736;50.076;8.198;2023-03-01T06:08:40;319.13;;;39.10;;
75156;SDS011;63736;50.076;8.198;2023-03-01T06:11:05;328.87;;;41.80;;
75156;SDS011;63736;50.076;8.198;2023-03-01T06:13:32;327.83;;;40.30;;
75156;SDS011;63736;50.076;8.198;2023-03-01T06:15:57;317.58;;;38.65;;
75156;SDS011;63736;50.076;8.198;2023-03-01T06:18:22;328.53;;;41.00;;
75156;SDS011;63736;50.076;8.198;2023-03-01T06:20:56;305.20;;;37.40;;
75156;SDS011;63736;50.076;8.198;2023-03-01T06:23:22;315.60;;;39.40;;
75156;SDS011;63736;50.076;8.198;2023-03-01T06:25:48;318.05;;;38.38;;
75156;SDS011;63736;50.076;8.198;2023-03-01T06:28:14;328.30;;;41.25;;
75156;SDS011;63736;50.076;8.198;2023-03-01T06:30:39;327.27;;;39.85;;
75156;SDS011;63736;50.076;8.198;2023-03-01T06:33:05;335.47;;;40.97;;
75156;SDS011;63736;50.076;8.198;2023-03-01T06:35:30;329.60;;;40.00;;
75156;SDS011;63736;50.076;8.198;2023-03-01T06:37:56;318.03;;;39.27;;
75156;SDS011;63736;50.076;8.198;2023-03-01T06:40:24;334.63;;;41.45;;
75156;SDS011;63736;50.076;8.198;2023-03-01T06:42:50;336.10;;;41.50;;
75156;SDS011;63736;50.076;8.198;2023-03-01T06:45:16;340.97;;;43.73;;
75156;SDS011;63736;50.076;8.198;2023-03-01T06:47:43;338.00;;;42.10;;
75156;SDS011;63736;50.076;8.198;2023-03-01T06:50:08;332.47;;;41.30;;
75156;SDS011;63736;50.076;8.198;2023-03-01T06:52:34;343.45;;;42.88;;
75156;SDS011;63736;50.076;8.198;2023-03-01T06:54:59;324.90;;;41.43;;
75156;SDS011;63736;50.076;8.198;2023-03-01T06:57:25;343.50;;;42.67;;
75156;SDS011;63736;50.076;8.198;2023-03-01T06:59:51;320.95;;;43.08;;
75156;SDS011;63736;50.076;8.198;2023-03-01T07:02:16;340.30;;;43.00;;
75156;SDS011;63736;50.076;8.198;2023-03-01T07:04:41;346.10;;;42.60;;
75156;SDS011;63736;50.076;8.198;2023-03-01T07:07:07;366.70;;;59.80;;
75156;SDS011;63736;50.076;8.198;2023-03-01T07:09:33;411.30;;;75.97;;
75156;SDS011;63736;50.076;8.198;2023-03-01T07:11:58;418.60;;;74.83;;
75156;SDS011;63736;50.076;8.198;2023-03-01T07:14:24;423.30;;;75.25;;
75156;SDS011;63736;50.076;8.198;2023-03-01T07:16:50;427.80;;;76.35;;
75156;SDS011;63736;50.076;8.198;2023-03-01T07:19:16;447.33;;;73.18;;
75156;SDS011;63736;50.076;8.198;2023-03-01T07:21:42;450.30;;;74.20;;
75156;SDS011;63736;50.076;8.198;2023-03-01T07:24:07;458.97;;;69.67;;
75156;SDS011;63736;50.076;8.198;2023-03-01T07:26:33;458.67;;;68.77;;
75156;SDS011;63736;50.076;8.198;2023-03-01T07:28:59;454.50;;;70.65;;
75156;SDS011;63736;50.076;8.198;2023-03-01T07:31:25;422.65;;;71.07;;
75156;SDS011;63736;50.076;8.198;2023-03-01T07:33:52;425.20;;;73.57;;
75156;SDS011;63736;50.076;8.198;2023-03-01T07:36:18;373.85;;;59.50;;
75156;SDS011;63736;50.076;8.198;2023-03-01T07:38:43;446.00;;;75.00;;
75156;SDS011;63736;50.076;8.198;2023-03-01T07:41:08;465.57;;;72.27;;
75156;SDS011;63736;50.076;8.198;2023-03-01T07:43:33;457.27;;;70.43;;
75156;SDS011;63736;50.076;8.198;2023-03-01T07:46:00;425.40;;;76.90;;
75156;SDS011;63736;50.076;8.198;2023-03-01T07:48:26;414.75;;;75.10;;
75156;SDS011;63736;50.076;8.198;2023-03-01T07:53:16;451.42;;;76.05;;
75156;SDS011;63736;50.076;8.198;2023-03-01T07:55:41;371.27;;;50.23;;
75156;SDS011;63736;50.076;8.198;2023-03-01T07:58:07;394.80;;;66.27;;
75156;SDS011;63736;50.076;8.198;2023-03-01T08:00:32;394.53;;;69.03;;
75156;SDS011;63736;50.076;8.198;2023-03-01T08:03:00;405.00;;;71.80;;
75156;SDS011;63736;50.076;8.198;2023-03-01T08:05:26;426.42;;;80.93;;
75156;SDS011;63736;50.076;8.198;2023-03-01T08:07:52;399.10;;;66.55;;
75156;SDS011;63736;50.076;8.198;2023-03-01T08:10:17;402.20;;;74.40;;
75156;SDS011;63736;50.076;8.198;2023-03-01T08:12:43;376.10;;;49.57;;
75156;SDS011;63736;50.076;8.198;2023-03-01T08:17:33;393.30;;;61.33;;
75156;SDS011;63736;50.076;8.198;2023-03-01T08:19:59;406.67;;;73.47;;
75156;SDS011;63736;50.076;8.198;2023-03-01T08:22:24;419.83;;;76.95;;
75156;SDS011;63736;50.076;8.198;2023-03-01T08:24:49;421.50;;;75.43;;
75156;SDS011;63736;50.076;8.198;2023-03-01T08:27:15;426.63;;;76.33;;
75156;SDS011;63736;50.076;8.198;2023-03-01T08:29:42;419.27;;;73.90;;
75156;SDS011;63736;50.076;8.198;2023-03-01T08:32:07;438.57;;;77.37;;
75156;SDS011;63736;50.076;8.198;2023-03-01T08:34:33;444.30;;;77.20;;
75156;SDS011;63736;50.076;8.198;2023-03-01T08:37:00;446.40;;;76.70;;
75156;SDS011;63736;50.076;8.198;2023-03-01T08:44:17;361.13;;;40.57;;
75156;SDS011;63736;50.076;8.198;2023-03-01T08:46:42;367.07;;;42.13;;
75156;SDS011;63736;50.076;8.198;2023-03-01T08:49:13;367.77;;;42.90;;
75156;SDS011;63736;50.076;8.198;2023-03-01T08:51:41;369.20;;;43.20;;
75156;SDS011;63736;50.076;8.198;2023-03-01T08:54:11;374.40;;;44.20;;
75156;SDS011;63736;50.076;8.198;2023-03-01T08:56:41;373.63;;;41.50;;
75156;SDS011;63736;50.076;8.198;2023-03-01T08:59:07;381.25;;;41.60;;
75156;SDS011;63736;50.076;8.198;2023-03-01T09:01:32;383.40;;;41.25;;
75156;SDS011;63736;50.076;8.198;2023-03-01T09:03:58;381.25;;;42.90;;
75156;SDS011;63736;50.076;8.198;2023-03-01T09:06:23;382.25;;;42.90;;
75156;SDS011;63736;50.076;8.198;2023-03-01T09:08:49;386.95;;;47.25;;
75156;SDS011;63736;50.076;8.198;2023-03-01T09:35:59;375.30;;;42.20;;
75156;SDS011;63736;50.076;8.198;2023-03-01T09:38:28;369.60;;;41.07;;
75156;SDS011;63736;50.076;8.198;2023-03-01T09:40:54;375.35;;;42.30;;
